createdAt,value
2023-05-07T00:03:47.820Z,101828.06
2023-05-07T00:10:30.353Z,101834.91
2023-05-07T00:17:12.791Z,101837.38
2023-05-07T00:23:55.568Z,101844.34
2023-05-07T00:30:37.794Z,101844.34
2023-05-07T00:37:19.922Z,101841.66
2023-05-07T00:44:03.526Z,101848.53
2023-05-07T00:50:46.731Z,101848.44
2023-05-07T00:57:29.231Z,101845.72
2023-05-07T01:04:11.458Z,101857.91
2023-05-07T01:10:55.791Z,101856.97
2023-05-07T01:17:41.238Z,101863.91
2023-05-07T01:24:31.528Z,101861.19
2023-05-07T01:31:16.577Z,101868.16
2023-05-07T01:37:59.154Z,101868.09
2023-05-07T01:44:41.387Z,101875.88
2023-05-07T01:51:23.880Z,101886.25
2023-05-07T01:58:06.053Z,101898.34
2023-05-07T02:04:48.682Z,101896.47
2023-05-07T02:11:31.852Z,101907.69
2023-05-07T02:18:14.329Z,101911.13
2023-05-07T02:24:56.590Z,101911.06
2023-05-07T02:31:38.874Z,101911.00
2023-05-07T02:38:21.296Z,101913.44
2023-05-07T02:45:04.061Z,101920.28
2023-05-07T02:51:47.221Z,101927.06
2023-05-07T02:58:35.759Z,101925.97
2023-05-07T03:05:19.747Z,101938.84
2023-05-07T03:12:02.784Z,101942.25
2023-05-07T03:18:45.464Z,101950.94
2023-05-07T03:25:28.808Z,101950.94
2023-05-07T03:32:15.556Z,101958.03
2023-05-07T03:38:58.139Z,101955.50
2023-05-07T03:45:45.227Z,101970.50
2023-05-07T03:52:35.432Z,101965.50
2023-05-07T03:59:19.573Z,101966.63
2023-05-07T04:06:03.796Z,101972.97
2023-05-07T04:12:48.611Z,101980.16
2023-05-07T04:19:35.863Z,101983.03
2023-05-07T04:26:18.243Z,101984.16
2023-05-07T04:33:02.165Z,101994.88
2023-05-07T04:39:46.684Z,102000.38
2023-05-07T04:46:29.048Z,102010.22
2023-05-07T04:53:13.588Z,102002.63
2023-05-07T04:59:56.017Z,102007.22
2023-05-07T05:06:38.366Z,102012.69
2023-05-07T05:13:22.519Z,102009.47
2023-05-07T05:20:06.886Z,102018.56
2023-05-07T05:26:50.280Z,102022.38
2023-05-07T05:33:32.917Z,102027.06
2023-05-07T05:40:19.459Z,102033.56
2023-05-07T05:47:01.768Z,102040.91
2023-05-07T05:53:45.335Z,102043.88
2023-05-07T06:00:28.334Z,102052.94
2023-05-07T06:07:16.688Z,102048.91
2023-05-07T06:13:59.082Z,102049.25
2023-05-07T06:20:42.742Z,102046.91
2023-05-07T06:27:32.503Z,102050.75
2023-05-07T06:34:17.452Z,102053.66
2023-05-07T06:40:59.728Z,102064.44
2023-05-07T06:47:41.985Z,102066.41
2023-05-07T06:54:25.159Z,102060.53
2023-05-07T07:01:08.198Z,102054.56
2023-05-07T07:07:53.866Z,102066.97
2023-05-07T07:14:36.790Z,102067.06
2023-05-07T07:21:19.716Z,102073.31
2023-05-07T07:28:02.590Z,102069.84
2023-05-07T07:34:45.061Z,102076.91
2023-05-07T07:41:28.297Z,102073.34
2023-05-07T07:48:11.252Z,102078.53
2023-05-07T07:54:54.303Z,102076.66
2023-05-07T08:01:37.803Z,102068.50
2023-05-07T08:08:21.016Z,102076.19
2023-05-07T08:15:04.838Z,102066.22
2023-05-07T08:21:48.867Z,102066.75
2023-05-07T08:28:32.406Z,102069.00
2023-05-07T08:35:14.790Z,102069.41
2023-05-07T08:42:01.078Z,102063.63
2023-05-07T08:48:43.318Z,102069.22
2023-05-07T08:55:31.080Z,102074.06
2023-05-07T09:02:13.957Z,102077.34
2023-05-07T09:08:56.716Z,102072.38
2023-05-07T09:15:42.381Z,102073.81
2023-05-07T09:22:25.462Z,102077.19
2023-05-07T09:29:16.497Z,102087.63
2023-05-07T09:35:58.729Z,102087.09
2023-05-07T09:42:41.214Z,102093.41
2023-05-07T09:49:25.987Z,102095.50
2023-05-07T09:56:17.185Z,102097.72
2023-05-07T10:02:59.603Z,102105.03
2023-05-07T10:09:52.845Z,102084.44
2023-05-07T10:16:43.754Z,102093.53
2023-05-07T10:23:32.764Z,102099.13
2023-05-07T10:31:04.715Z,102084.19
2023-05-07T10:37:54.048Z,102088.78
2023-05-07T10:44:38.821Z,102082.59
2023-05-07T10:51:25.792Z,102074.63
2023-05-07T10:58:32.966Z,102078.03
2023-05-07T11:05:37.350Z,102078.94
2023-05-07T11:12:41.276Z,102071.75
2023-05-07T11:19:52.483Z,102082.63
2023-05-07T11:27:01.288Z,102092.72
2023-05-07T11:33:46.092Z,102082.63
2023-05-07T11:40:32.220Z,102085.31
2023-05-07T11:47:23.610Z,102081.81
2023-05-07T11:54:09.774Z,102079.31
2023-05-07T12:00:54.365Z,102077.66
2023-05-07T12:07:36.586Z,102085.69
2023-05-07T12:14:18.753Z,102075.94
2023-05-07T12:21:01.257Z,102074.88
2023-05-07T12:27:43.462Z,102095.03
2023-05-07T12:34:25.787Z,102082.34
2023-05-07T12:41:11.190Z,102087.56
2023-05-07T12:47:53.653Z,102081.06
2023-05-07T12:54:39.931Z,102086.66
2023-05-07T13:01:22.945Z,102090.22
2023-05-07T13:08:05.774Z,102092.06
2023-05-07T13:14:48.011Z,102081.34
2023-05-07T13:21:34.132Z,102071.97
2023-05-07T13:28:16.855Z,102076.72
2023-05-07T13:34:59.391Z,102086.91
2023-05-07T13:41:41.581Z,102083.75
2023-05-07T13:48:23.870Z,102074.09
2023-05-07T13:55:07.100Z,102064.97
2023-05-07T14:01:50.676Z,102071.59
2023-05-07T14:08:33.057Z,102090.16
2023-05-07T14:15:17.098Z,102086.66
2023-05-07T14:21:59.670Z,102080.25
2023-05-07T14:28:47.209Z,102082.69
2023-05-07T14:35:29.579Z,102091.47
2023-05-07T14:42:12.523Z,102094.31
2023-05-07T14:48:54.748Z,102097.00
2023-05-07T14:55:37.213Z,102098.91
2023-05-07T15:02:21.404Z,102095.94
2023-05-07T15:09:04.140Z,102094.06
2023-05-07T15:15:46.719Z,102107.59
2023-05-07T15:22:29.224Z,102108.34
2023-05-07T15:29:11.850Z,102115.84
2023-05-07T15:35:54.374Z,102118.22
2023-05-07T15:42:36.644Z,102116.31
2023-05-07T15:49:18.874Z,102115.94
2023-05-07T15:56:01.155Z,102107.53
2023-05-07T16:02:43.378Z,102118.97
2023-05-07T16:09:26.294Z,102124.50
2023-05-07T16:16:08.438Z,102122.50
2023-05-07T16:22:51.006Z,102118.88
2023-05-07T16:29:33.252Z,102127.00
2023-05-07T16:36:15.426Z,102122.53
2023-05-07T16:42:57.880Z,102124.41
2023-05-07T16:49:40.195Z,102137.63
2023-05-07T16:56:22.913Z,102128.50
2023-05-07T17:03:06.329Z,102140.50
2023-05-07T17:09:48.637Z,102127.88
2023-05-07T17:16:30.876Z,102139.03
2023-05-07T17:23:14.226Z,102143.88
2023-05-07T17:29:56.734Z,102145.09
2023-05-07T17:36:38.920Z,102151.47
2023-05-07T17:43:23.476Z,102147.22
2023-05-07T17:50:11.060Z,102155.31
2023-05-07T17:56:54.052Z,102158.16
2023-05-07T18:03:37.594Z,102160.94
2023-05-07T18:10:19.985Z,102155.72
2023-05-07T18:17:02.314Z,102160.25
2023-05-07T18:23:48.761Z,102174.41
2023-05-07T18:30:31.341Z,102184.19
2023-05-07T18:37:13.745Z,102188.63
2023-05-07T18:43:56.023Z,102193.00
2023-05-07T18:50:43.500Z,102195.56
2023-05-07T18:57:26.046Z,102211.31
2023-05-07T19:04:08.380Z,102216.47
2023-05-07T19:10:50.674Z,102226.00
2023-05-07T19:17:33.069Z,102226.72
2023-05-07T19:24:16.228Z,102224.81
2023-05-07T19:30:58.717Z,102234.31
2023-05-07T19:37:41.050Z,102242.88
2023-05-07T19:44:25.091Z,102233.84
2023-05-07T19:51:07.557Z,102238.97
2023-05-07T19:57:50.322Z,102247.59
2023-05-07T20:04:37.794Z,102248.28
2023-05-07T20:11:21.686Z,102257.63
2023-05-07T20:18:04.686Z,102252.13
2023-05-07T20:24:47.244Z,102258.13
2023-05-07T20:31:32.097Z,102262.44
2023-05-07T20:38:14.718Z,102266.72
2023-05-07T20:44:57.099Z,102265.84
2023-05-07T20:51:39.418Z,102269.38
2023-05-07T20:58:25.258Z,102269.38
2023-05-07T21:05:07.945Z,102290.28
2023-05-07T21:11:50.265Z,102284.03
2023-05-07T21:18:32.939Z,102289.16
2023-05-07T21:25:15.789Z,102286.38
2023-05-07T21:31:58.181Z,102300.97
2023-05-07T21:38:41.219Z,102307.72
2023-05-07T21:45:23.528Z,102308.31
2023-05-07T21:52:05.775Z,102316.69
